createdAt,value
2023-05-04T00:01:18.535Z,11.00
2023-05-04T00:03:45.477Z,10.80
2023-05-04T00:06:12.289Z,10.80
2023-05-04T00:08:38.910Z,10.80
2023-05-04T00:11:05.462Z,10.70
2023-05-04T00:13:38.284Z,10.70
2023-05-04T00:16:09.963Z,10.80
2023-05-04T00:18:37.643Z,10.70
2023-05-04T00:21:04.241Z,10.70
2023-05-04T00:23:31.022Z,10.70
2023-05-04T00:26:00.764Z,10.70
2023-05-04T00:28:27.683Z,10.60
2023-05-04T00:30:54.810Z,10.50
2023-05-04T00:33:24.643Z,10.40
2023-05-04T00:35:51.424Z,10.40
2023-05-04T00:38:19.089Z,10.40
2023-05-04T00:40:45.689Z,10.40
2023-05-04T00:43:12.329Z,10.30
2023-05-04T00:45:39.993Z,10.40
2023-05-04T00:48:07.797Z,10.30
2023-05-04T00:50:34.971Z,10.30
2023-05-04T00:53:09.350Z,10.30
2023-05-04T00:55:42.194Z,10.40
2023-05-04T00:58:11.951Z,10.30
2023-05-04T01:00:38.773Z,10.20
2023-05-04T01:03:34.013Z,10.30
2023-05-04T01:06:25.794Z,10.40
2023-05-04T01:09:20.436Z,10.40
2023-05-04T01:12:04.687Z,10.30
2023-05-04T01:14:31.884Z,10.30
2023-05-04T01:16:59.968Z,10.30
2023-05-04T01:19:29.005Z,10.30
2023-05-04T01:21:56.563Z,10.30
2023-05-04T01:24:24.769Z,10.20
2023-05-04T01:26:57.402Z,10.20
2023-05-04T01:30:07.431Z,10.10
2023-05-04T01:32:35.784Z,10.20
2023-05-04T01:35:02.878Z,10.10
2023-05-04T01:37:29.484Z,10.00
2023-05-04T01:39:59.136Z,10.20
2023-05-04T01:42:25.778Z,10.20
2023-05-04T01:44:52.363Z,10.00
2023-05-04T01:47:18.919Z,10.10
2023-05-04T01:49:45.673Z,10.20
2023-05-04T01:52:12.284Z,10.00
2023-05-04T01:54:38.817Z,10.00
2023-05-04T01:57:08.171Z,9.90
2023-05-04T01:59:35.861Z,9.90
2023-05-04T02:02:03.350Z,9.90
2023-05-04T02:04:30.423Z,9.90
2023-05-04T02:06:57.021Z,9.90
2023-05-04T02:09:23.661Z,9.80
2023-05-04T02:11:50.271Z,9.90
2023-05-04T02:14:17.014Z,9.90
2023-05-04T02:16:43.853Z,9.80
2023-05-04T02:19:10.812Z,9.80
2023-05-04T02:21:52.463Z,9.80
2023-05-04T02:24:19.187Z,9.80
2023-05-04T02:26:45.893Z,9.80
2023-05-04T02:29:12.592Z,9.70
2023-05-04T02:31:39.310Z,9.70
2023-05-04T02:34:06.033Z,9.60
2023-05-04T02:36:32.675Z,9.50
2023-05-04T02:39:00.451Z,9.50
2023-05-04T02:41:27.140Z,9.50
2023-05-04T02:43:53.744Z,9.60
2023-05-04T02:46:20.435Z,9.50
2023-05-04T02:48:47.050Z,9.50
2023-05-04T02:51:13.716Z,9.50
2023-05-04T02:53:40.427Z,9.30
2023-05-04T02:56:07.168Z,9.20
2023-05-04T02:58:33.778Z,9.20
2023-05-04T03:01:00.521Z,9.20
2023-05-04T03:03:27.215Z,9.20
2023-05-04T03:05:53.920Z,9.30
2023-05-04T03:08:20.561Z,9.30
2023-05-04T03:10:47.163Z,9.30
2023-05-04T03:13:13.788Z,9.20
2023-05-04T03:15:40.843Z,9.20
2023-05-04T03:18:08.462Z,9.00
2023-05-04T03:20:35.111Z,9.10
2023-05-04T03:23:04.598Z,9.10
2023-05-04T03:25:31.277Z,9.10
2023-05-04T03:27:57.916Z,9.00
2023-05-04T03:30:24.695Z,9.10
2023-05-04T03:32:51.460Z,9.00
2023-05-04T03:35:24.388Z,9.10
2023-05-04T03:37:51.767Z,9.10
2023-05-04T03:40:22.766Z,9.10
2023-05-04T03:42:49.738Z,8.90
2023-05-04T03:45:16.406Z,8.80
2023-05-04T03:47:43.071Z,8.80
2023-05-04T03:50:11.030Z,8.90
2023-05-04T03:52:37.649Z,8.90
2023-05-04T03:55:04.586Z,8.90
2023-05-04T03:57:31.163Z,8.90
2023-05-04T03:59:58.044Z,9.00
2023-05-04T04:02:25.089Z,8.90
2023-05-04T04:04:54.914Z,8.90
2023-05-04T04:07:21.543Z,8.90
2023-05-04T04:09:48.229Z,8.90
2023-05-04T04:12:18.208Z,8.90
2023-05-04T04:14:45.115Z,8.90
2023-05-04T04:17:11.669Z,8.90
2023-05-04T04:19:38.266Z,9.00
2023-05-04T04:22:04.851Z,8.90
2023-05-04T04:24:31.793Z,9.10
2023-05-04T04:26:58.372Z,9.10
2023-05-04T04:29:25.076Z,9.00
2023-05-04T04:31:51.762Z,9.10
2023-05-04T04:34:18.644Z,9.00
2023-05-04T04:36:45.274Z,9.10
2023-05-04T04:39:12.110Z,9.00
2023-05-04T04:41:38.669Z,9.00
2023-05-04T04:44:05.682Z,9.00
2023-05-04T04:46:32.546Z,9.10
2023-05-04T04:48:59.179Z,9.10
2023-05-04T04:51:26.432Z,9.10
2023-05-04T04:53:53.192Z,9.20
2023-05-04T04:56:20.563Z,9.20
2023-05-04T04:58:47.588Z,9.10
2023-05-04T05:01:17.927Z,9.20
2023-05-04T05:03:45.431Z,9.20
2023-05-04T05:06:13.148Z,9.20
2023-05-04T05:08:40.175Z,9.10
2023-05-04T05:11:11.295Z,9.20
2023-05-04T05:13:38.057Z,9.40
2023-05-04T05:16:05.154Z,9.30
2023-05-04T05:18:32.156Z,9.50
2023-05-04T05:20:58.966Z,9.50
2023-05-04T05:23:26.931Z,9.50
2023-05-04T05:25:53.616Z,9.30
2023-05-04T05:28:20.323Z,9.30
2023-05-04T05:30:47.911Z,9.40
2023-05-04T05:33:14.623Z,9.40
2023-05-04T05:35:41.284Z,9.60
2023-05-04T05:38:07.954Z,9.60
2023-05-04T05:40:34.559Z,9.70
2023-05-04T05:43:01.306Z,9.70
2023-05-04T05:45:27.986Z,9.80
2023-05-04T05:47:54.813Z,9.80
2023-05-04T05:50:23.919Z,9.90
2023-05-04T05:52:50.765Z,9.80
2023-05-04T05:55:17.645Z,9.80
2023-05-04T05:57:44.320Z,9.90
2023-05-04T06:00:12.584Z,9.90
2023-05-04T06:02:39.730Z,10.10
2023-05-04T06:05:06.829Z,10.30
2023-05-04T06:07:33.513Z,10.30
2023-05-04T06:10:00.229Z,10.40
2023-05-04T06:12:26.844Z,10.50
2023-05-04T06:14:53.526Z,10.40
2023-05-04T06:17:21.625Z,10.50
2023-05-04T06:19:50.866Z,10.60
2023-05-04T06:22:17.918Z,10.60
2023-05-04T06:24:44.600Z,10.70
2023-05-04T06:27:11.376Z,10.80
2023-05-04T06:29:40.203Z,10.90
2023-05-04T06:32:07.867Z,11.00
2023-05-04T06:34:34.593Z,11.10
2023-05-04T06:37:01.777Z,11.20
2023-05-04T06:39:28.344Z,11.20
2023-05-04T06:41:55.537Z,11.30
2023-05-04T06:44:22.461Z,11.30
2023-05-04T06:46:49.060Z,11.30
2023-05-04T06:49:17.630Z,11.30
2023-05-04T06:51:44.224Z,11.40
2023-05-04T06:54:11.207Z,11.50
2023-05-04T06:56:39.695Z,11.60
2023-05-04T06:59:07.039Z,11.70
2023-05-04T07:01:33.750Z,11.80
2023-05-04T07:04:00.803Z,12.00
2023-05-04T07:06:28.490Z,12.10
2023-05-04T07:08:55.164Z,12.20
2023-05-04T07:11:22.052Z,12.30
2023-05-04T07:13:48.890Z,12.30
2023-05-04T07:16:15.579Z,12.40
2023-05-04T07:18:42.351Z,12.50
2023-05-04T07:21:26.880Z,12.60
2023-05-04T07:23:55.667Z,12.70
2023-05-04T07:26:23.064Z,12.90
2023-05-04T07:28:49.776Z,13.00
2023-05-04T07:31:18.372Z,13.30
2023-05-04T07:33:45.646Z,13.40
2023-05-04T07:36:12.414Z,13.60
2023-05-04T07:38:39.022Z,13.80
2023-05-04T07:41:07.078Z,14.00
2023-05-04T07:43:33.943Z,13.90
2023-05-04T07:46:01.495Z,14.10
2023-05-04T07:48:28.180Z,14.30
2023-05-04T07:50:54.793Z,14.40
2023-05-04T07:53:21.435Z,14.70
2023-05-04T07:55:48.898Z,14.80
2023-05-04T07:58:18.214Z,14.80
2023-05-04T08:00:44.816Z,15.00
2023-05-04T08:03:11.554Z,15.20
2023-05-04T08:05:38.227Z,15.30
2023-05-04T08:08:05.002Z,15.60
2023-05-04T08:10:31.975Z,15.60
2023-05-04T08:12:58.765Z,15.70
2023-05-04T08:15:25.716Z,15.90
2023-05-04T08:17:52.513Z,15.90
2023-05-04T08:20:19.530Z,16.10
2023-05-04T08:22:47.375Z,16.20
2023-05-04T08:25:14.020Z,16.20
2023-05-04T08:27:41.886Z,16.40
2023-05-04T08:30:09.526Z,16.50
2023-05-04T08:32:36.213Z,16.60
2023-05-04T08:35:03.491Z,16.60
2023-05-04T08:37:30.840Z,16.60
2023-05-04T08:39:57.421Z,16.80
2023-05-04T08:42:28.613Z,16.80
2023-05-04T08:44:59.088Z,16.90
2023-05-04T08:47:26.903Z,17.20
2023-05-04T08:49:54.609Z,17.30
2023-05-04T08:52:24.463Z,17.30
2023-05-04T08:54:56.228Z,17.20
2023-05-04T08:57:24.156Z,17.40
2023-05-04T08:59:53.993Z,17.70
2023-05-04T09:02:22.764Z,17.70
2023-05-04T09:04:50.226Z,17.60
2023-05-04T09:07:21.877Z,17.70
2023-05-04T09:09:50.816Z,17.80
2023-05-04T09:12:19.430Z,17.90
2023-05-04T09:14:48.499Z,17.80
2023-05-04T09:17:27.708Z,18.00
2023-05-04T09:20:02.151Z,17.90
2023-05-04T09:22:30.128Z,16.80
2023-05-04T09:25:11.196Z,16.70
2023-05-04T09:27:40.450Z,16.80
2023-05-04T09:30:09.942Z,16.80
2023-05-04T09:32:46.386Z,16.80
2023-05-04T09:35:22.007Z,16.90
2023-05-04T09:37:58.101Z,16.90
2023-05-04T09:40:32.753Z,16.90
2023-05-04T09:43:00.979Z,17.10
2023-05-04T09:45:41.982Z,17.30
2023-05-04T09:48:25.628Z,17.40
2023-05-04T09:50:54.434Z,17.60
2023-05-04T09:53:24.690Z,17.40
2023-05-04T09:56:10.927Z,17.80
2023-05-04T09:58:38.234Z,17.70
2023-05-04T10:01:05.434Z,18.20
2023-05-04T10:03:33.094Z,18.50
2023-05-04T10:06:02.591Z,18.10
2023-05-04T10:08:29.770Z,18.30
2023-05-04T10:10:57.240Z,18.30
2023-05-04T10:13:25.320Z,18.90
2023-05-04T10:16:24.199Z,18.30
2023-05-04T10:19:29.185Z,18.60
2023-05-04T10:22:27.482Z,18.50
2023-05-04T10:25:32.262Z,18.20
2023-05-04T10:28:23.595Z,18.50
2023-05-04T10:30:57.973Z,18.50
2023-05-04T10:33:42.244Z,18.40
2023-05-04T10:36:10.244Z,18.70
2023-05-04T10:38:38.979Z,19.00
2023-05-04T10:41:18.090Z,19.30
2023-05-04T10:43:51.818Z,19.10
2023-05-04T10:46:22.728Z,19.20
2023-05-04T10:48:49.972Z,19.20
2023-05-04T10:51:21.244Z,19.40
2023-05-04T10:53:48.027Z,19.40
2023-05-04T10:56:25.768Z,19.70
2023-05-04T10:58:53.705Z,20.40
2023-05-04T11:01:22.023Z,19.60
2023-05-04T11:03:49.707Z,19.70
2023-05-04T11:06:24.950Z,20.10
2023-05-04T11:09:10.382Z,20.70
2023-05-04T11:11:37.524Z,21.20
2023-05-04T11:14:04.247Z,21.30
2023-05-04T11:16:36.679Z,21.90
2023-05-04T11:19:09.817Z,21.90
2023-05-04T11:21:36.675Z,22.00
2023-05-04T11:24:03.657Z,22.20
2023-05-04T11:26:30.307Z,22.40
2023-05-04T11:28:57.107Z,22.50
2023-05-04T11:31:23.899Z,22.50
2023-05-04T11:33:52.849Z,22.40
2023-05-04T11:36:20.255Z,22.50
2023-05-04T11:38:47.506Z,22.60
2023-05-04T11:41:19.128Z,23.00
2023-05-04T11:43:46.868Z,22.80
2023-05-04T11:46:16.475Z,22.80
2023-05-04T11:48:43.510Z,23.10
2023-05-04T11:51:11.162Z,23.20
2023-05-04T11:53:41.587Z,23.10
2023-05-04T11:56:08.995Z,23.20
2023-05-04T11:58:36.402Z,23.20
2023-05-04T12:01:06.874Z,23.20
2023-05-04T12:03:52.259Z,23.40
2023-05-04T12:06:32.164Z,23.60
2023-05-04T12:09:04.284Z,23.70
2023-05-04T12:11:30.945Z,23.60
2023-05-04T12:14:17.066Z,23.70
2023-05-04T12:16:55.323Z,23.70
2023-05-04T12:19:22.023Z,23.80
2023-05-04T12:21:53.286Z,23.80
2023-05-04T12:24:23.831Z,23.90
2023-05-04T12:26:51.113Z,24.10
2023-05-04T12:29:17.938Z,24.30
2023-05-04T12:31:44.722Z,24.20
2023-05-04T12:34:11.412Z,24.30
2023-05-04T12:36:38.148Z,24.40
2023-05-04T12:39:04.792Z,24.30
2023-05-04T12:41:31.643Z,24.50
2023-05-04T12:43:58.414Z,24.60
2023-05-04T12:46:25.012Z,24.50
2023-05-04T12:48:51.598Z,24.70
2023-05-04T12:51:18.238Z,24.70
2023-05-04T12:53:44.876Z,25.00
2023-05-04T12:56:11.671Z,25.00
2023-05-04T12:58:41.089Z,25.00
2023-05-04T13:01:07.851Z,25.00
2023-05-04T13:03:34.610Z,25.10
2023-05-04T13:06:01.331Z,25.10
2023-05-04T13:08:28.024Z,25.00
2023-05-04T13:10:54.938Z,25.20
2023-05-04T13:13:26.097Z,25.40
2023-05-04T13:15:53.054Z,25.60
2023-05-04T13:18:19.877Z,25.60
2023-05-04T13:20:46.951Z,25.70
2023-05-04T13:23:13.973Z,25.60
2023-05-04T13:25:40.703Z,25.80
2023-05-04T13:28:07.331Z,25.90
2023-05-04T13:30:33.909Z,25.60
2023-05-04T13:33:00.572Z,25.50
2023-05-04T13:35:27.362Z,25.70
2023-05-04T13:37:54.075Z,25.80
2023-05-04T13:40:20.698Z,25.90
2023-05-04T13:42:50.775Z,25.80
2023-05-04T13:45:17.765Z,25.90
2023-05-04T13:47:45.112Z,26.10
2023-05-04T13:50:12.258Z,26.00
2023-05-04T13:52:38.889Z,26.20
2023-05-04T13:55:05.987Z,26.70
2023-05-04T13:57:32.846Z,26.70
2023-05-04T14:00:06.968Z,27.00
2023-05-04T14:02:34.783Z,27.10
2023-05-04T14:05:02.624Z,27.20
2023-05-04T14:07:29.956Z,27.70
2023-05-04T14:09:56.889Z,27.40
2023-05-04T14:12:23.998Z,27.50
2023-05-04T14:14:50.918Z,27.30
2023-05-04T14:17:20.996Z,27.30
2023-05-04T14:19:47.656Z,27.10
2023-05-04T14:22:14.274Z,27.10
2023-05-04T14:24:40.924Z,26.90
2023-05-04T14:27:07.659Z,27.20
2023-05-04T14:29:34.493Z,27.30
2023-05-04T14:32:01.153Z,27.30
2023-05-04T14:34:30.596Z,27.50
2023-05-04T14:36:57.604Z,27.50
2023-05-04T14:39:24.718Z,27.10
2023-05-04T14:41:52.782Z,27.10
2023-05-04T14:44:22.587Z,27.20
2023-05-04T14:46:49.346Z,27.70
2023-05-04T14:49:21.703Z,28.00
2023-05-04T14:51:51.498Z,27.90
2023-05-04T14:54:18.172Z,27.90
2023-05-04T14:56:44.918Z,27.90
2023-05-04T14:59:11.565Z,27.90
2023-05-04T15:01:38.235Z,28.00
2023-05-04T15:04:05.128Z,27.70
2023-05-04T15:06:33.829Z,27.40
2023-05-04T15:09:00.532Z,27.60
2023-05-04T15:11:30.329Z,28.00
2023-05-04T15:13:58.815Z,28.10
2023-05-04T15:16:32.038Z,27.60
2023-05-04T15:19:01.733Z,27.40
2023-05-04T15:21:28.305Z,27.50
2023-05-04T15:23:54.895Z,27.60
2023-05-04T15:26:22.166Z,27.50
2023-05-04T15:28:49.230Z,27.40
2023-05-04T15:31:17.486Z,27.30
2023-05-04T15:33:44.350Z,27.20
2023-05-04T15:36:11.046Z,27.20
2023-05-04T15:38:37.801Z,27.30
2023-05-04T15:41:05.866Z,27.20
2023-05-04T15:43:33.491Z,27.00
2023-05-04T15:46:00.225Z,26.90
2023-05-04T15:48:27.656Z,26.70
2023-05-04T15:50:54.912Z,26.90
2023-05-04T15:53:21.698Z,26.90
2023-05-04T15:55:48.650Z,26.90
2023-05-04T15:58:15.242Z,27.10
2023-05-04T16:00:41.906Z,27.50
2023-05-04T16:03:08.682Z,27.70
2023-05-04T16:05:37.451Z,27.60
2023-05-04T16:08:04.152Z,27.30
2023-05-04T16:10:30.728Z,27.00
2023-05-04T16:13:00.166Z,27.00
2023-05-04T16:15:26.915Z,26.80
2023-05-04T16:17:54.530Z,26.50
2023-05-04T16:20:21.381Z,26.30
2023-05-04T16:22:47.997Z,26.20
2023-05-04T16:25:14.740Z,26.20
2023-05-04T16:27:41.413Z,26.30
2023-05-04T16:30:08.801Z,26.20
2023-05-04T16:32:35.751Z,26.20
2023-05-04T16:35:02.476Z,26.10
2023-05-04T16:37:29.038Z,25.80
2023-05-04T16:39:56.492Z,25.80
2023-05-04T16:42:23.203Z,25.60
2023-05-04T16:44:49.779Z,25.50
2023-05-04T16:47:18.808Z,25.40
2023-05-04T16:49:45.638Z,25.10
2023-05-04T16:52:12.252Z,24.80
2023-05-04T16:54:38.848Z,24.60
2023-05-04T16:57:05.631Z,24.50
2023-05-04T16:59:32.317Z,24.40
2023-05-04T17:01:59.242Z,24.20
2023-05-04T17:04:27.549Z,24.20
2023-05-04T17:06:54.446Z,24.20
2023-05-04T17:09:21.025Z,24.10
2023-05-04T17:11:47.725Z,23.80
2023-05-04T17:14:14.394Z,23.70
2023-05-04T17:16:42.164Z,23.60
2023-05-04T17:19:10.927Z,23.60
2023-05-04T17:21:37.982Z,23.50
2023-05-04T17:24:05.497Z,23.40
2023-05-04T17:26:32.193Z,23.30
2023-05-04T17:28:59.090Z,23.20
2023-05-04T17:31:25.939Z,23.10
2023-05-04T17:33:52.621Z,23.10
2023-05-04T17:36:19.461Z,22.90
2023-05-04T17:38:52.359Z,23.00
2023-05-04T17:41:19.029Z,22.80
2023-05-04T17:43:45.839Z,22.80
2023-05-04T17:46:13.100Z,22.70
2023-05-04T17:48:39.709Z,22.50
2023-05-04T17:51:09.484Z,22.50
2023-05-04T17:53:42.894Z,22.40
2023-05-04T17:56:09.487Z,22.40
2023-05-04T17:58:36.220Z,22.30
2023-05-04T18:01:03.063Z,22.30
2023-05-04T18:03:29.841Z,22.30
2023-05-04T18:05:56.527Z,22.10
2023-05-04T18:08:23.145Z,22.10
2023-05-04T18:10:50.370Z,22.00
2023-05-04T18:13:17.165Z,22.00
2023-05-04T18:15:44.016Z,22.00
2023-05-04T18:18:16.480Z,21.80
2023-05-04T18:20:43.184Z,21.80
2023-05-04T18:23:11.286Z,21.70
2023-05-04T18:25:37.928Z,21.70
2023-05-04T18:28:07.306Z,21.50
2023-05-04T18:30:33.933Z,21.50
2023-05-04T18:33:00.597Z,21.40
2023-05-04T18:35:27.323Z,21.30
2023-05-04T18:37:55.976Z,21.20
2023-05-04T18:40:23.815Z,21.00
2023-05-04T18:42:50.579Z,20.90
2023-05-04T18:45:17.291Z,20.80
2023-05-04T18:47:43.930Z,20.80
2023-05-04T18:50:13.188Z,20.70
2023-05-04T18:52:39.988Z,20.60
2023-05-04T18:55:09.229Z,20.50
2023-05-04T18:57:36.003Z,20.30
2023-05-04T19:00:03.398Z,20.20
2023-05-04T19:02:30.294Z,20.10
2023-05-04T19:04:58.351Z,20.10
2023-05-04T19:07:25.067Z,19.90
2023-05-04T19:09:53.155Z,19.70
2023-05-04T19:12:20.081Z,19.70
2023-05-04T19:14:46.924Z,19.70
2023-05-04T19:17:14.755Z,19.60
2023-05-04T19:19:41.589Z,19.60
2023-05-04T19:22:08.473Z,19.50
2023-05-04T19:24:36.190Z,19.40
2023-05-04T19:27:03.826Z,19.40
2023-05-04T19:29:30.663Z,19.30
2023-05-04T19:31:59.552Z,19.00
2023-05-04T19:34:28.061Z,19.00
2023-05-04T19:36:59.283Z,18.90
2023-05-04T19:39:31.948Z,18.90
2023-05-04T19:42:31.261Z,18.70
2023-05-04T19:45:00.744Z,18.70
2023-05-04T19:47:31.054Z,18.60
2023-05-04T19:49:57.983Z,18.50
2023-05-04T19:52:24.544Z,18.40
2023-05-04T19:54:53.626Z,18.40
2023-05-04T19:57:21.233Z,18.30
2023-05-04T19:59:47.853Z,18.30
2023-05-04T20:02:14.564Z,18.30
2023-05-04T20:04:41.269Z,18.10
2023-05-04T20:07:22.306Z,18.10
2023-05-04T20:09:48.918Z,18.00
2023-05-04T20:12:16.235Z,18.00
2023-05-04T20:14:43.600Z,17.80
2023-05-04T20:17:10.339Z,17.80
2023-05-04T20:19:42.739Z,17.80
2023-05-04T20:22:09.652Z,17.90
2023-05-04T20:24:36.385Z,17.80
2023-05-04T20:27:06.894Z,17.70
2023-05-04T20:29:42.716Z,17.70
2023-05-04T20:32:10.674Z,17.60
2023-05-04T20:34:39.517Z,17.40
2023-05-04T20:37:06.432Z,17.50
2023-05-04T20:39:33.248Z,17.40
2023-05-04T20:42:00.427Z,17.40
2023-05-04T20:44:28.041Z,17.40
2023-05-04T20:46:54.708Z,17.30
2023-05-04T20:55:03.236Z,17.20
2023-05-04T20:57:29.976Z,17.20
2023-05-04T20:59:56.707Z,17.10
2023-05-04T21:02:23.267Z,17.10
2023-05-04T21:04:50.275Z,17.00
2023-05-04T21:07:17.007Z,16.90
2023-05-04T21:09:43.731Z,16.80
2023-05-04T21:12:12.135Z,16.70
2023-05-04T21:14:38.821Z,16.70
2023-05-04T21:17:05.645Z,16.60
2023-05-04T21:19:32.783Z,16.60
2023-05-04T21:21:59.452Z,16.60
2023-05-04T21:24:26.479Z,16.60
2023-05-04T21:26:53.266Z,16.50
2023-05-04T21:29:19.877Z,16.50
2023-05-04T21:31:46.818Z,16.40
2023-05-04T21:34:33.617Z,16.40
2023-05-04T21:37:00.765Z,16.30
2023-05-04T21:39:27.479Z,16.30
2023-05-04T21:41:54.179Z,16.10
2023-05-04T21:44:21.077Z,16.00
2023-05-04T21:46:47.738Z,15.90
2023-05-04T21:49:14.384Z,15.80
2023-05-04T21:51:42.489Z,15.90
2023-05-04T21:54:09.163Z,15.70
2023-05-04T21:56:35.818Z,15.70
2023-05-04T21:59:03.057Z,15.70
2023-05-04T22:01:30.120Z,15.70
2023-05-04T22:03:57.108Z,15.60
2023-05-04T22:06:24.416Z,15.60
2023-05-04T22:08:53.367Z,15.70
2023-05-04T22:11:20.039Z,15.60
2023-05-04T22:13:47.703Z,15.60
2023-05-04T22:16:14.295Z,15.50
2023-05-04T22:18:41.628Z,15.40
2023-05-04T22:21:08.254Z,15.40
2023-05-04T22:23:34.869Z,15.40
2023-05-04T22:26:04.323Z,15.20
2023-05-04T22:28:31.139Z,15.10
2023-05-04T22:30:59.574Z,15.10
2023-05-04T22:33:27.571Z,15.10
2023-05-04T22:35:54.179Z,15.10
2023-05-04T22:38:21.708Z,15.10
2023-05-04T22:40:49.906Z,15.10
2023-05-04T22:43:19.724Z,15.10
2023-05-04T22:45:46.809Z,15.10
2023-05-04T22:48:14.935Z,15.10
2023-05-04T22:50:41.822Z,15.20
2023-05-04T22:53:09.639Z,15.00
2023-05-04T22:55:36.358Z,14.90
2023-05-04T22:58:02.987Z,14.90
2023-05-04T23:00:31.842Z,14.90
2023-05-04T23:02:58.945Z,14.70
2023-05-04T23:05:26.762Z,14.80
2023-05-04T23:07:53.452Z,14.90
2023-05-04T23:10:20.124Z,14.90
2023-05-04T23:12:47.361Z,14.90
2023-05-04T23:15:14.173Z,14.90
2023-05-04T23:17:41.073Z,14.80
2023-05-04T23:20:10.841Z,14.90
2023-05-04T23:22:40.361Z,14.90
2023-05-04T23:25:07.353Z,14.90
2023-05-04T23:27:37.107Z,14.90
2023-05-04T23:30:04.607Z,14.80
2023-05-04T23:32:31.253Z,14.70
2023-05-04T23:34:57.902Z,14.70
2023-05-04T23:37:24.812Z,14.70
2023-05-04T23:39:51.693Z,14.80
2023-05-04T23:42:18.441Z,14.80
2023-05-04T23:44:45.095Z,14.80
2023-05-04T23:47:11.718Z,14.70
2023-05-04T23:49:38.405Z,14.70
2023-05-04T23:52:05.101Z,14.70
2023-05-04T23:54:31.805Z,14.60
2023-05-04T23:56:59.107Z,14.70
2023-05-04T23:59:26.514Z,14.60
